Time;durP1;ratioP1;P1;durP2;ratioP2;P2;SDS_P1;SDS_P2;PMS_P1;PMS_P2;Temp;Humidity;BMP_temperature;BMP_pressure;BME280_temperature;BME280_humidity;BME280_pressure;Samples;Min_cycle;Max_cycle;Signal;HPM_P1;HPM_P2
2023/04/16 00:01:47;;;;;;;;;;;10.10;99.90;;;;;;5034698;28;19905;-64
2023/04/16 00:04:13;;;;;;;;;;;10.20;99.90;;;;;;5034759;28;19905;-65
2023/04/16 00:06:38;;;;;;;;;;;10.10;99.90;;;;;;5034609;28;19905;-65
2023/04/16 00:09:03;;;;;;;;;;;10.10;99.90;;;;;;5034730;28;19913;-66
2023/04/16 00:11:29;;;;;;;;;;;10.10;99.90;;;;;;5034044;28;19905;-64
2023/04/16 00:13:54;;;;;;;;;;;10.10;99.90;;;;;;5034279;28;20358;-63
2023/04/16 00:16:20;;;;;;;;;;;10.10;99.90;;;;;;5034251;28;19905;-64
2023/04/16 00:18:45;;;;;;;;;;;10.00;99.90;;;;;;5034285;28;19995;-64
2023/04/16 00:21:11;;;;;;;;;;;10.00;99.90;;;;;;5034512;28;19943;-64
2023/04/16 00:23:37;;;;;;;;;;;10.10;99.90;;;;;;5035498;28;19905;-65
2023/04/16 00:26:02;;;;;;;;;;;10.10;99.90;;;;;;5035531;28;19959;-66
2023/04/16 00:28:28;;;;;;;;;;;10.00;99.90;;;;;;5018037;28;19905;-64
2023/04/16 00:30:54;;;;;;;;;;;10.20;99.90;;;;;;5035789;28;19951;-65
2023/04/16 00:33:19;;;;;;;;;;;10.30;99.90;;;;;;5035632;28;19923;-65
2023/04/16 00:35:45;;;;;;;;;;;10.20;99.90;;;;;;5035463;28;20004;-64
2023/04/16 00:38:11;;;;;;;;;;;10.20;99.90;;;;;;5035956;28;19905;-64
2023/04/16 00:40:37;;;;;;;;;;;10.20;99.90;;;;;;5035399;28;20284;-64
2023/04/16 00:43:02;;;;;;;;;;;10.20;99.90;;;;;;5035308;28;19952;-65
2023/04/16 00:45:28;;;;;;;;;;;10.20;99.90;;;;;;5035334;28;19994;-64
2023/04/16 00:47:54;;;;;;;;;;;10.20;99.90;;;;;;5035431;28;19916;-64
2023/04/16 00:50:20;;;;;;;;;;;10.00;99.90;;;;;;5035086;28;19920;-65
2023/04/16 00:52:49;;;;;;;;;;;9.90;99.90;;;;;;5033900;28;19905;-65
2023/04/16 00:55:16;;;;;;;;;;;10.10;99.90;;;;;;5034358;28;20005;-64
2023/04/16 00:57:41;;;;;;;;;;;10.00;99.90;;;;;;5034223;28;20388;-66
2023/04/16 01:00:07;;;;;;;;;;;10.00;99.90;;;;;;5034871;28;19905;-65
2023/04/16 01:02:33;;;;;;;;;;;9.80;99.90;;;;;;5034566;28;19928;-65
2023/04/16 01:04:59;;;;;;;;;;;10.00;99.90;;;;;;5034096;28;19920;-64
2023/04/16 01:07:24;;;;;;;;;;;10.10;99.90;;;;;;5032530;28;19959;-65
2023/04/16 01:09:50;;;;;;;;;;;10.00;99.90;;;;;;5033960;28;19909;-65
2023/04/16 01:12:15;;;;;;;;;;;10.00;99.90;;;;;;5033526;28;19905;-66
2023/04/16 01:14:41;;;;;;;;;;;10.10;99.90;;;;;;5033680;28;20281;-66
2023/04/16 01:17:06;;;;;;;;;;;9.90;99.90;;;;;;5033634;28;19908;-65
2023/04/16 01:19:35;;;;;;;;;;;10.00;99.90;;;;;;5034313;28;19905;-65
2023/04/16 01:22:01;;;;;;;;;;;10.10;99.90;;;;;;5033541;28;19992;-65
2023/04/16 01:24:26;;;;;;;;;;;10.10;99.90;;;;;;5016089;28;19955;-65
2023/04/16 01:26:52;;;;;;;;;;;10.20;99.90;;;;;;5033443;28;20475;-65
2023/04/16 01:29:17;;;;;;;;;;;10.20;99.90;;;;;;5033499;28;19905;-65
2023/04/16 01:31:43;;;;;;;;;;;10.10;99.90;;;;;;5033344;28;19911;-65
2023/04/16 01:34:08;;;;;;;;;;;10.20;99.90;;;;;;5033861;28;19932;-65
2023/04/16 01:36:33;;;;;;;;;;;10.10;99.90;;;;;;5033490;28;19909;-66
2023/04/16 01:38:59;;;;;;;;;;;9.90;99.90;;;;;;5015549;28;19905;-65
2023/04/16 01:41:24;;;;;;;;;;;9.90;99.90;;;;;;5032842;28;19959;-65
2023/04/16 01:43:50;;;;;;;;;;;10.00;99.90;;;;;;5033361;28;19905;-65
2023/04/16 01:46:15;;;;;;;;;;;10.00;99.90;;;;;;5034117;28;19905;-65
2023/04/16 01:48:41;;;;;;;;;;;10.00;99.90;;;;;;5033562;28;19911;-66
2023/04/16 01:51:06;;;;;;;;;;;9.90;99.90;;;;;;5015508;28;20259;-65
2023/04/16 01:53:32;;;;;;;;;;;9.80;99.90;;;;;;5015378;28;19916;-65
2023/04/16 01:55:57;;;;;;;;;;;9.90;99.90;;;;;;5033540;28;19950;-66
2023/04/16 01:58:22;;;;;;;;;;;9.80;99.90;;;;;;5032982;28;19911;-64
2023/04/16 02:00:48;;;;;;;;;;;9.80;99.90;;;;;;5033053;28;19909;-65
2023/04/16 02:03:16;;;;;;;;;;;9.80;99.90;;;;;;5016332;28;19909;-64
2023/04/16 02:05:41;;;;;;;;;;;9.80;99.90;;;;;;5033216;28;19938;-65
2023/04/16 02:08:07;;;;;;;;;;;9.80;99.90;;;;;;5033539;28;19905;-63
2023/04/16 02:10:32;;;;;;;;;;;9.90;99.90;;;;;;5015351;28;19952;-63
2023/04/16 02:12:57;;;;;;;;;;;9.80;99.90;;;;;;5031723;28;19905;-65
2023/04/16 02:15:24;;;;;;;;;;;9.60;99.90;;;;;;5033186;28;19909;-64
2023/04/16 02:17:53;;;;;;;;;;;9.70;99.90;;;;;;5017320;28;19905;-65
2023/04/16 02:20:19;;;;;;;;;;;9.80;99.90;;;;;;5036796;28;19912;-64
2023/04/16 02:22:44;;;;;;;;;;;9.90;99.90;;;;;;5036612;28;19905;-65
2023/04/16 02:25:10;;;;;;;;;;;10.00;99.90;;;;;;5036359;28;19912;-64
2023/04/16 02:27:35;;;;;;;;;;;9.90;99.90;;;;;;5036174;28;19905;-65
2023/04/16 02:30:03;;;;;;;;;;;9.90;99.90;;;;;;5036805;28;19999;-64
2023/04/16 02:32:29;;;;;;;;;;;9.80;99.90;;;;;;5036412;28;19996;-65
2023/04/16 02:34:55;;;;;;;;;;;10.00;99.90;;;;;;5037614;28;20317;-65
2023/04/16 02:37:21;;;;;;;;;;;10.00;99.90;;;;;;5036964;28;19984;-65
2023/04/16 02:39:48;;;;;;;;;;;10.00;99.90;;;;;;5034876;28;20015;-65
2023/04/16 02:42:15;;;;;;;;;;;9.90;99.90;;;;;;5048369;23;19921;-66
2023/04/16 02:44:40;;;;;;;;;;;9.80;99.90;;;;;;5036059;28;19905;-65
2023/04/16 02:47:06;;;;;;;;;;;10.00;99.90;;;;;;5036321;28;20000;-64
2023/04/16 02:49:31;;;;;;;;;;;10.00;99.90;;;;;;5036308;28;19905;-64
2023/04/16 02:51:57;;;;;;;;;;;9.90;99.90;;;;;;5025550;28;19927;-65
2023/04/16 02:54:22;;;;;;;;;;;9.90;99.90;;;;;;5054959;28;19909;-64
2023/04/16 02:56:47;;;;;;;;;;;9.90;99.90;;;;;;5035780;28;19920;-65
2023/04/16 02:59:13;;;;;;;;;;;10.00;99.90;;;;;;5035470;28;19912;-65
2023/04/16 03:01:38;;;;;;;;;;;10.10;99.90;;;;;;5034688;28;19928;-65
2023/04/16 03:04:04;;;;;;;;;;;10.10;99.90;;;;;;5031485;28;20270;-65
2023/04/16 03:06:30;;;;;;;;;;;10.10;99.90;;;;;;5013978;28;20278;-65
2023/04/16 03:08:55;;;;;;;;;;;10.10;99.90;;;;;;5016083;28;19905;-65
2023/04/16 03:11:21;;;;;;;;;;;10.10;99.90;;;;;;5015754;28;19928;-65
2023/04/16 03:13:46;;;;;;;;;;;10.10;99.90;;;;;;5028995;28;19988;-65
2023/04/16 03:16:12;;;;;;;;;;;10.00;99.90;;;;;;5018515;28;19905;-66
2023/04/16 03:18:37;;;;;;;;;;;10.00;99.90;;;;;;5035605;28;19999;-65
2023/04/16 03:21:03;;;;;;;;;;;9.90;99.90;;;;;;5035303;28;19909;-65
2023/04/16 03:23:29;;;;;;;;;;;10.00;99.90;;;;;;5035296;28;19911;-65
2023/04/16 03:25:55;;;;;;;;;;;9.90;99.90;;;;;;5017565;28;19905;-65
2023/04/16 03:28:20;;;;;;;;;;;9.90;99.90;;;;;;5034219;28;20254;-65
2023/04/16 03:30:50;;;;;;;;;;;9.90;99.90;;;;;;5033931;28;19905;-65
2023/04/16 03:33:16;;;;;;;;;;;10.00;99.90;;;;;;5034949;28;19905;-65
2023/04/16 03:35:41;;;;;;;;;;;9.90;99.90;;;;;;5035664;28;19912;-65
2023/04/16 03:38:06;;;;;;;;;;;9.90;99.90;;;;;;5017291;28;20273;-65
2023/04/16 03:40:32;;;;;;;;;;;10.00;99.90;;;;;;5035056;28;20266;-66
2023/04/16 03:42:57;;;;;;;;;;;10.00;99.90;;;;;;5035233;28;20285;-65
2023/04/16 03:45:23;;;;;;;;;;;10.10;99.90;;;;;;5018783;28;19909;-65
2023/04/16 03:47:51;;;;;;;;;;;10.20;99.90;;;;;;5037571;28;19973;-65
2023/04/16 03:50:17;;;;;;;;;;;10.00;99.90;;;;;;5034912;28;19905;-64
2023/04/16 03:52:43;;;;;;;;;;;10.00;99.90;;;;;;5035318;28;20442;-65
2023/04/16 03:55:09;;;;;;;;;;;10.10;99.90;;;;;;5018270;28;19952;-65
2023/04/16 03:57:34;;;;;;;;;;;10.00;99.90;;;;;;5035189;28;19912;-65
2023/04/16 04:00:00;;;;;;;;;;;9.90;99.90;;;;;;5034900;28;19905;-65
2023/04/16 04:02:25;;;;;;;;;;;9.80;99.90;;;;;;5034862;28;19905;-65
2023/04/16 04:04:51;;;;;;;;;;;9.80;99.90;;;;;;5017104;28;19905;-65
2023/04/16 04:07:16;;;;;;;;;;;9.90;99.90;;;;;;5034729;28;19909;-66
2023/04/16 04:09:42;;;;;;;;;;;10.00;99.90;;;;;;5034734;28;19955;-65
2023/04/16 04:12:08;;;;;;;;;;;9.90;99.90;;;;;;5034681;28;19905;-66
2023/04/16 04:14:38;;;;;;;;;;;10.00;99.90;;;;;;5034204;28;19909;-66
2023/04/16 04:17:04;;;;;;;;;;;10.00;99.90;;;;;;5034438;28;19909;-65
2023/04/16 04:19:29;;;;;;;;;;;10.00;99.90;;;;;;5034434;28;20277;-65
2023/04/16 04:21:55;;;;;;;;;;;9.90;99.90;;;;;;5034099;28;19905;-65
2023/04/16 04:24:20;;;;;;;;;;;9.90;99.90;;;;;;5034294;28;19905;-64
2023/04/16 04:26:46;;;;;;;;;;;9.70;99.90;;;;;;5016474;28;19928;-65
2023/04/16 04:29:12;;;;;;;;;;;9.80;99.90;;;;;;5034002;28;19905;-64
2023/04/16 04:31:37;;;;;;;;;;;9.80;99.90;;;;;;5034362;28;19919;-64
2023/04/16 04:34:03;;;;;;;;;;;9.90;99.90;;;;;;5034043;28;19919;-65
2023/04/16 04:36:28;;;;;;;;;;;9.90;99.90;;;;;;5034467;28;19912;-65
2023/04/16 04:38:54;;;;;;;;;;;9.90;99.90;;;;;;5016981;28;19905;-65
2023/04/16 04:41:20;;;;;;;;;;;9.90;99.90;;;;;;5034184;28;19948;-65
2023/04/16 04:43:46;;;;;;;;;;;9.90;99.90;;;;;;5034369;28;19909;-66
2023/04/16 04:46:11;;;;;;;;;;;9.90;99.90;;;;;;5034428;28;20371;-65
2023/04/16 04:48:36;;;;;;;;;;;9.90;99.90;;;;;;5034138;28;20417;-65
2023/04/16 04:51:03;;;;;;;;;;;9.80;99.90;;;;;;5034338;28;20258;-65
2023/04/16 04:53:28;;;;;;;;;;;10.00;99.90;;;;;;5034206;28;19967;-65
2023/04/16 04:55:54;;;;;;;;;;;9.90;99.90;;;;;;5032475;28;19952;-65
2023/04/16 04:58:19;;;;;;;;;;;10.00;99.90;;;;;;5033599;28;19905;-65
2023/04/16 05:00:45;;;;;;;;;;;10.00;99.90;;;;;;5033935;28;19905;-64
2023/04/16 05:03:11;;;;;;;;;;;9.90;99.90;;;;;;5034236;28;20272;-65
2023/04/16 05:05:37;;;;;;;;;;;9.90;99.90;;;;;;5033855;28;20281;-65
2023/04/16 05:08:03;;;;;;;;;;;9.80;99.90;;;;;;5033714;28;19905;-65
2023/04/16 05:10:28;;;;;;;;;;;9.80;99.90;;;;;;5033828;28;19912;-65
2023/04/16 05:12:54;;;;;;;;;;;9.80;99.90;;;;;;5033305;28;19995;-65
2023/04/16 05:15:19;;;;;;;;;;;9.90;99.90;;;;;;5033601;28;19964;-66
2023/04/16 05:17:45;;;;;;;;;;;9.90;99.90;;;;;;5033538;28;19913;-66
2023/04/16 05:20:10;;;;;;;;;;;9.90;99.90;;;;;;5034172;28;20252;-65
2023/04/16 05:22:36;;;;;;;;;;;9.80;99.90;;;;;;5015761;28;19906;-66
2023/04/16 05:25:01;;;;;;;;;;;9.80;99.90;;;;;;5033627;28;20316;-65
2023/04/16 05:27:27;;;;;;;;;;;9.80;99.90;;;;;;5033410;28;19911;-64
2023/04/16 05:29:52;;;;;;;;;;;9.90;99.90;;;;;;5033124;28;20312;-66
2023/04/16 05:32:18;;;;;;;;;;;9.90;99.90;;;;;;5033415;28;19988;-65
2023/04/16 05:34:43;;;;;;;;;;;9.90;99.90;;;;;;5033524;28;19956;-65
2023/04/16 05:37:09;;;;;;;;;;;10.00;99.90;;;;;;5015986;28;19959;-66
2023/04/16 05:39:34;;;;;;;;;;;10.00;99.90;;;;;;5033953;28;19921;-65
2023/04/16 05:42:00;;;;;;;;;;;10.00;99.90;;;;;;5033578;28;20008;-66
2023/04/16 05:44:25;;;;;;;;;;;9.90;99.90;;;;;;5015740;28;19952;-65
2023/04/16 05:46:51;;;;;;;;;;;9.90;99.90;;;;;;5033624;28;19905;-66
2023/04/16 05:49:20;;;;;;;;;;;9.80;99.90;;;;;;5034013;28;19905;-64
2023/04/16 05:51:46;;;;;;;;;;;9.90;99.90;;;;;;5034689;28;19905;-65
2023/04/16 05:54:12;;;;;;;;;;;9.90;99.90;;;;;;5019728;28;20293;-66
2023/04/16 05:56:37;;;;;;;;;;;10.00;99.90;;;;;;5036972;28;19909;-66
2023/04/16 05:59:03;;;;;;;;;;;9.90;99.90;;;;;;5013668;28;19917;-67
2023/04/16 06:01:28;;;;;;;;;;;9.90;99.90;;;;;;5036120;28;19909;-67
2023/04/16 06:03:54;;;;;;;;;;;10.00;99.90;;;;;;5034851;28;19909;-66
2023/04/16 06:06:19;;;;;;;;;;;10.10;99.90;;;;;;5034390;28;19944;-69
2023/04/16 06:08:47;;;;;;;;;;;10.10;99.90;;;;;;5034796;28;19915;-67
2023/04/16 06:11:14;;;;;;;;;;;10.10;99.90;;;;;;5037007;28;20100;-66
2023/04/16 06:13:41;;;;;;;;;;;10.00;99.90;;;;;;5018958;28;19909;-66
2023/04/16 06:16:06;;;;;;;;;;;10.10;99.90;;;;;;5027730;28;19917;-66
2023/04/16 06:18:32;;;;;;;;;;;10.10;99.90;;;;;;5036666;28;20400;-66
2023/04/16 06:21:00;;;;;;;;;;;10.10;99.90;;;;;;5033911;28;19917;-66
2023/04/16 06:23:26;;;;;;;;;;;10.10;99.90;;;;;;5034169;28;20266;-67
2023/04/16 06:25:51;;;;;;;;;;;10.10;99.90;;;;;;5036370;28;19911;-64
2023/04/16 06:28:17;;;;;;;;;;;10.10;99.90;;;;;;5032207;28;20296;-65
2023/04/16 06:30:42;;;;;;;;;;;10.20;99.90;;;;;;5036317;28;19913;-66
2023/04/16 06:33:11;;;;;;;;;;;10.20;99.90;;;;;;5021447;28;19905;-65
2023/04/16 06:35:36;;;;;;;;;;;10.20;99.90;;;;;;5036453;28;19909;-65
2023/04/16 06:38:02;;;;;;;;;;;10.20;99.90;;;;;;5036285;28;20004;-70
2023/04/16 06:40:27;;;;;;;;;;;10.20;99.90;;;;;;5018950;28;20301;-70
2023/04/16 06:42:53;;;;;;;;;;;10.30;99.90;;;;;;5036098;28;19956;-67
2023/04/16 06:45:18;;;;;;;;;;;10.30;99.90;;;;;;5035013;28;19906;-67
2023/04/16 06:47:46;;;;;;;;;;;10.30;99.90;;;;;;5034973;28;19904;-68
2023/04/16 06:50:12;;;;;;;;;;;10.30;99.90;;;;;;5035160;28;19912;-67
2023/04/16 06:52:37;;;;;;;;;;;10.30;99.90;;;;;;5021387;28;19909;-68
2023/04/16 06:55:03;;;;;;;;;;;10.30;99.90;;;;;;5037366;28;19913;-66
2023/04/16 06:57:31;;;;;;;;;;;10.50;99.90;;;;;;5037027;28;20279;-68
2023/04/16 06:59:57;;;;;;;;;;;10.50;99.90;;;;;;5031465;28;19909;-67
2023/04/16 07:02:23;;;;;;;;;;;10.60;99.90;;;;;;5007915;28;19916;-68
2023/04/16 07:04:48;;;;;;;;;;;10.50;99.90;;;;;;5028235;28;20239;-67
2023/04/16 07:07:14;;;;;;;;;;;10.50;99.90;;;;;;5018181;28;19905;-70
2023/04/16 07:09:41;;;;;;;;;;;10.60;99.90;;;;;;5036933;28;19905;-68
2023/04/16 07:12:10;;;;;;;;;;;10.60;99.90;;;;;;5017900;28;19912;-67
2023/04/16 07:14:36;;;;;;;;;;;10.60;99.90;;;;;;5036428;28;19927;-68
2023/04/16 07:17:01;;;;;;;;;;;10.60;99.90;;;;;;5037363;28;20368;-67
2023/04/16 07:19:31;;;;;;;;;;;10.60;99.90;;;;;;5019699;28;19905;-67
2023/04/16 07:21:57;;;;;;;;;;;10.60;99.90;;;;;;5020585;28;19912;-68
2023/04/16 07:24:23;;;;;;;;;;;10.50;99.90;;;;;;5038288;28;19911;-68
2023/04/16 07:26:49;;;;;;;;;;;10.60;99.90;;;;;;5015671;28;19910;-69
2023/04/16 07:29:14;;;;;;;;;;;10.60;99.90;;;;;;5014410;28;20480;-69
2023/04/16 07:31:40;;;;;;;;;;;10.70;99.90;;;;;;5017987;28;20309;-66
2023/04/16 07:34:05;;;;;;;;;;;10.80;99.90;;;;;;5036519;28;19920;-69
2023/04/16 07:36:31;;;;;;;;;;;10.70;99.90;;;;;;5036735;28;19912;-69
2023/04/16 07:38:56;;;;;;;;;;;10.60;99.90;;;;;;5018606;28;19927;-69
2023/04/16 07:41:22;;;;;;;;;;;10.70;99.90;;;;;;5035527;28;19905;-68
2023/04/16 07:43:47;;;;;;;;;;;10.70;99.90;;;;;;5035040;28;19909;-68
2023/04/16 07:46:13;;;;;;;;;;;10.70;99.90;;;;;;5035614;28;19916;-72
2023/04/16 07:48:38;;;;;;;;;;;10.60;99.90;;;;;;5035680;28;19924;-70
2023/04/16 07:51:04;;;;;;;;;;;10.70;99.90;;;;;;5037023;28;19996;-66
2023/04/16 07:53:29;;;;;;;;;;;10.70;99.90;;;;;;5034721;28;19955;-68
2023/04/16 07:55:55;;;;;;;;;;;10.70;99.90;;;;;;5007952;28;19963;-69
2023/04/16 07:58:20;;;;;;;;;;;10.90;99.90;;;;;;5024672;28;19916;-67
2023/04/16 08:00:46;;;;;;;;;;;11.00;99.90;;;;;;5034532;28;19905;-67
2023/04/16 08:03:11;;;;;;;;;;;11.00;99.90;;;;;;5034932;28;19913;-69
2023/04/16 08:05:36;;;;;;;;;;;10.90;99.90;;;;;;5034416;28;19905;-66
2023/04/16 08:08:02;;;;;;;;;;;10.80;99.90;;;;;;5016427;28;20362;-68
2023/04/16 08:10:27;;;;;;;;;;;10.70;99.90;;;;;;5021949;28;19935;-66
2023/04/16 08:12:53;;;;;;;;;;;10.80;99.90;;;;;;5034456;28;20003;-66
2023/04/16 08:15:18;;;;;;;;;;;10.80;99.90;;;;;;5033455;28;19913;-67
2023/04/16 08:17:44;;;;;;;;;;;10.90;99.90;;;;;;5034922;28;19968;-66
2023/04/16 08:20:09;;;;;;;;;;;10.90;99.90;;;;;;5017128;28;20304;-66
2023/04/16 08:22:35;;;;;;;;;;;10.90;99.90;;;;;;5034225;28;19920;-67
2023/04/16 08:25:01;;;;;;;;;;;10.90;99.90;;;;;;5016607;28;20066;-67
2023/04/16 08:27:27;;;;;;;;;;;11.00;99.90;;;;;;5026255;28;19992;-73
2023/04/16 08:29:52;;;;;;;;;;;11.00;99.90;;;;;;5016211;28;19951;-70
2023/04/16 08:32:18;;;;;;;;;;;11.00;99.90;;;;;;5016665;28;19988;-68
2023/04/16 08:34:43;;;;;;;;;;;11.00;99.90;;;;;;5034545;28;20312;-68
2023/04/16 08:37:09;;;;;;;;;;;10.90;99.90;;;;;;5034218;28;19905;-68
2023/04/16 08:39:34;;;;;;;;;;;11.00;99.90;;;;;;5034204;28;19905;-68
2023/04/16 08:42:01;;;;;;;;;;;11.00;99.90;;;;;;5034689;28;20059;-68
2023/04/16 08:44:30;;;;;;;;;;;11.20;99.90;;;;;;5034020;28;19916;-68
2023/04/16 08:46:57;;;;;;;;;;;11.30;99.90;;;;;;5016606;28;19905;-68
2023/04/16 08:49:23;;;;;;;;;;;11.40;99.90;;;;;;5016215;28;19912;-68
2023/04/16 08:51:50;;;;;;;;;;;11.60;99.90;;;;;;5045396;28;19912;-67
2023/04/16 08:54:22;;;;;;;;;;;11.60;99.90;;;;;;5034906;28;20012;-67
2023/04/16 08:56:47;;;;;;;;;;;11.50;99.90;;;;;;5034195;28;19905;-68
2023/04/16 08:59:13;;;;;;;;;;;11.40;99.90;;;;;;5033702;28;19905;-68
2023/04/16 09:01:40;;;;;;;;;;;11.40;99.90;;;;;;5028442;28;19923;-68
2023/04/16 09:04:06;;;;;;;;;;;11.30;99.90;;;;;;5016626;28;19912;-69
2023/04/16 09:06:32;;;;;;;;;;;11.30;99.90;;;;;;5016384;28;19905;-67
2023/04/16 09:08:59;;;;;;;;;;;11.30;99.90;;;;;;5015880;28;19945;-67
2023/04/16 09:11:25;;;;;;;;;;;11.50;99.90;;;;;;5032732;28;19940;-69
2023/04/16 09:13:51;;;;;;;;;;;11.50;99.90;;;;;;5030253;28;19909;-69
2023/04/16 09:16:17;;;;;;;;;;;11.50;99.90;;;;;;5031917;28;19958;-71
2023/04/16 09:18:42;;;;;;;;;;;11.40;99.90;;;;;;5032589;28;19959;-71
2023/04/16 09:21:09;;;;;;;;;;;11.40;99.90;;;;;;5032846;28;19928;-72
2023/04/16 09:23:36;;;;;;;;;;;11.40;99.90;;;;;;5015455;28;19912;-72
2023/04/16 09:26:03;;;;;;;;;;;11.30;99.90;;;;;;5034501;28;20373;-70
2023/04/16 09:28:42;;;;;;;;;;;11.20;99.90;;;;;;5037880;28;19920;-69
2023/04/16 09:31:08;;;;;;;;;;;11.20;99.90;;;;;;5036666;28;19905;-70
2023/04/16 09:33:33;;;;;;;;;;;11.10;99.90;;;;;;5016735;28;20004;-70
2023/04/16 09:35:59;;;;;;;;;;;11.10;99.90;;;;;;5016636;28;19992;-67
2023/04/16 09:38:25;;;;;;;;;;;11.20;99.90;;;;;;5017877;28;19935;-67
2023/04/16 09:41:09;;;;;;;;;;;11.20;99.90;;;;;;5019548;28;20267;-67
2023/04/16 09:43:35;;;;;;;;;;;11.30;99.90;;;;;;5020042;28;19967;-67
2023/04/16 09:46:03;;;;;;;;;;;11.30;99.90;;;;;;5039060;28;19950;-66
2023/04/16 09:48:32;;;;;;;;;;;11.20;99.90;;;;;;5039372;28;19916;-66
2023/04/16 09:50:59;;;;;;;;;;;11.30;99.90;;;;;;5039674;28;19984;-66
2023/04/16 09:53:25;;;;;;;;;;;11.30;99.90;;;;;;5039372;28;19951;-66
2023/04/16 09:55:51;;;;;;;;;;;11.30;99.90;;;;;;5037657;28;20358;-67
2023/04/16 09:58:17;;;;;;;;;;;11.20;99.90;;;;;;5037306;28;19905;-67
2023/04/16 10:00:43;;;;;;;;;;;11.30;99.90;;;;;;5019162;28;19994;-65
2023/04/16 10:03:09;;;;;;;;;;;11.40;99.90;;;;;;5036911;28;19909;-65
2023/04/16 10:05:35;;;;;;;;;;;11.40;99.90;;;;;;5037077;28;19905;-66
2023/04/16 10:08:01;;;;;;;;;;;11.30;99.90;;;;;;5036999;28;19905;-67
2023/04/16 10:10:26;;;;;;;;;;;11.40;99.90;;;;;;5036703;28;19905;-67
2023/04/16 10:12:53;;;;;;;;;;;11.40;99.90;;;;;;5036731;28;20414;-66
2023/04/16 10:15:19;;;;;;;;;;;11.40;99.90;;;;;;5036744;28;19913;-66
2023/04/16 10:17:45;;;;;;;;;;;11.40;99.90;;;;;;5034872;28;19972;-67
2023/04/16 10:20:10;;;;;;;;;;;11.40;99.90;;;;;;5034417;28;19909;-67
2023/04/16 10:22:35;;;;;;;;;;;11.40;99.90;;;;;;5016968;28;19913;-66
2023/04/16 10:25:01;;;;;;;;;;;11.40;99.90;;;;;;5026483;28;19916;-67
2023/04/16 10:27:27;;;;;;;;;;;11.50;99.90;;;;;;5036274;28;19984;-66
2023/04/16 10:29:53;;;;;;;;;;;11.50;99.90;;;;;;5036147;28;19905;-68
2023/04/16 10:35:24;;;;;;;;;;;11.60;99.90;;;;;;5033463;28;19919;-66
2023/04/16 10:37:54;;;;;;;;;;;11.60;99.90;;;;;;5025500;28;19958;-65
2023/04/16 10:40:24;;;;;;;;;;;11.80;99.90;;;;;;5031769;28;19940;-66
2023/04/16 10:42:56;;;;;;;;;;;11.80;99.90;;;;;;5034491;28;19912;-66
2023/04/16 10:45:26;;;;;;;;;;;11.80;99.90;;;;;;5029061;28;20119;-65
2023/04/16 10:47:58;;;;;;;;;;;11.80;99.90;;;;;;5013950;28;20297;-67
2023/04/16 10:50:24;;;;;;;;;;;11.60;99.90;;;;;;5036096;28;19905;-66
2023/04/16 10:53:09;;;;;;;;;;;11.60;99.90;;;;;;5036470;28;19905;-66
2023/04/16 10:55:40;;;;;;;;;;;11.50;99.90;;;;;;5035925;28;19909;-68
2023/04/16 10:58:24;;;;;;;;;;;11.60;99.90;;;;;;5035391;28;20002;-69
2023/04/16 11:00:51;;;;;;;;;;;11.60;99.90;;;;;;5025140;28;19905;-66
2023/04/16 11:03:16;;;;;;;;;;;11.60;99.90;;;;;;5028300;28;19909;-65
2023/04/16 11:05:48;;;;;;;;;;;11.60;99.90;;;;;;5033396;28;20297;-65
2023/04/16 11:08:14;;;;;;;;;;;11.60;99.90;;;;;;5035778;28;19905;-64
2023/04/16 11:10:40;;;;;;;;;;;11.60;99.90;;;;;;5035583;28;19999;-65
2023/04/16 11:13:09;;;;;;;;;;;11.50;99.90;;;;;;5035625;28;20055;-66
2023/04/16 11:15:35;;;;;;;;;;;11.60;99.90;;;;;;5035185;28;20011;-66
2023/04/16 11:18:02;;;;;;;;;;;11.50;99.90;;;;;;5035907;28;20002;-65
2023/04/16 11:20:28;;;;;;;;;;;11.40;99.90;;;;;;5020514;28;19912;-69
2023/04/16 11:22:56;;;;;;;;;;;11.30;99.90;;;;;;5033905;28;20362;-65
2023/04/16 11:25:25;;;;;;;;;;;11.40;99.90;;;;;;5035283;28;19912;-71
2023/04/16 11:27:51;;;;;;;;;;;11.30;99.90;;;;;;5014857;28;19905;-69
2023/04/16 11:30:26;;;;;;;;;;;11.20;99.90;;;;;;5012892;28;19999;-72
2023/04/16 11:32:52;;;;;;;;;;;11.20;99.90;;;;;;5030559;28;19951;-71
2023/04/16 11:35:18;;;;;;;;;;;11.20;99.90;;;;;;4996900;28;19914;-71
2023/04/16 11:37:44;;;;;;;;;;;11.20;99.90;;;;;;5008834;28;19971;-70
2023/04/16 11:40:12;;;;;;;;;;;11.20;99.90;;;;;;5035289;28;19909;-70
2023/04/16 11:42:43;;;;;;;;;;;11.10;99.90;;;;;;5035083;28;20031;-71
2023/04/16 11:45:09;;;;;;;;;;;11.00;99.90;;;;;;5035044;28;19992;-71
2023/04/16 11:47:56;;;;;;;;;;;11.00;99.90;;;;;;5035189;28;19928;-66
2023/04/16 11:50:26;;;;;;;;;;;11.00;99.90;;;;;;4983166;28;20318;-66
2023/04/16 11:52:54;;;;;;;;;;;11.00;99.90;;;;;;4969706;28;19906;-66
2023/04/16 11:55:21;;;;;;;;;;;10.90;99.90;;;;;;4964953;28;19961;-66
2023/04/16 11:57:46;;;;;;;;;;;11.00;99.90;;;;;;4950839;28;20322;-67
2023/04/16 12:00:12;;;;;;;;;;;11.00;99.90;;;;;;4973906;28;19943;-66
2023/04/16 12:02:47;;;;;;;;;;;11.00;99.90;;;;;;4974486;28;19928;-66
2023/04/16 12:05:33;;;;;;;;;;;11.00;99.90;;;;;;4973906;28;20048;-67
2023/04/16 12:08:05;;;;;;;;;;;11.00;99.90;;;;;;4958030;28;19906;-66
2023/04/16 12:10:58;;;;;;;;;;;11.00;99.90;;;;;;4829539;27;6755287;-66
2023/04/16 12:13:27;;;;;;;;;;;10.90;99.90;;;;;;5028392;28;19941;-66
2023/04/16 12:15:56;;;;;;;;;;;10.90;99.90;;;;;;4993060;28;19910;-66
2023/04/16 12:18:22;;;;;;;;;;;10.80;99.90;;;;;;5011279;28;19916;-66
2023/04/16 12:20:51;;;;;;;;;;;10.90;99.90;;;;;;5011554;28;19911;-66
2023/04/16 12:23:23;;;;;;;;;;;10.90;99.90;;;;;;4993777;28;19913;-66
2023/04/16 12:25:51;;;;;;;;;;;10.80;99.90;;;;;;5011587;28;19917;-66
2023/04/16 12:28:41;;;;;;;;;;;10.80;99.90;;;;;;5005769;28;19956;-67
2023/04/16 12:31:09;;;;;;;;;;;10.80;99.90;;;;;;5030864;28;19948;-67
2023/04/16 12:33:37;;;;;;;;;;;10.80;99.90;;;;;;5030856;28;19959;-66
2023/04/16 12:36:24;;;;;;;;;;;10.80;99.90;;;;;;5029686;28;19910;-67
2023/04/16 12:38:49;;;;;;;;;;;10.80;99.90;;;;;;5029440;28;19909;-67
2023/04/16 12:41:18;;;;;;;;;;;10.90;99.90;;;;;;5030559;28;19975;-66
2023/04/16 12:44:01;;;;;;;;;;;10.80;99.90;;;;;;5031359;28;19914;-68
2023/04/16 12:46:29;;;;;;;;;;;10.80;99.90;;;;;;5012740;28;19913;-68
2023/04/16 12:48:56;;;;;;;;;;;10.90;99.90;;;;;;5030370;28;19920;-67
2023/04/16 12:51:22;;;;;;;;;;;10.70;99.90;;;;;;5019996;28;19919;-67
2023/04/16 12:53:53;;;;;;;;;;;10.70;99.90;;;;;;5030594;28;19924;-67
2023/04/16 12:56:19;;;;;;;;;;;10.70;99.90;;;;;;5030712;28;19955;-66
2023/04/16 12:58:44;;;;;;;;;;;10.70;99.90;;;;;;5030591;28;19909;-68
2023/04/16 13:01:10;;;;;;;;;;;10.50;99.90;;;;;;5026622;28;20044;-70
2023/04/16 13:03:44;;;;;;;;;;;10.60;99.90;;;;;;5012324;28;19913;-69
2023/04/16 13:06:19;;;;;;;;;;;10.60;99.90;;;;;;5030188;28;19913;-66
2023/04/16 13:08:45;;;;;;;;;;;10.70;99.90;;;;;;5030777;28;19972;-73
2023/04/16 13:11:14;;;;;;;;;;;10.60;99.90;;;;;;5031994;28;19921;-72
2023/04/16 13:13:42;;;;;;;;;;;10.50;99.90;;;;;;5013502;28;19960;-66
2023/04/16 13:16:08;;;;;;;;;;;10.60;99.90;;;;;;5029906;28;19909;-66
2023/04/16 13:18:36;;;;;;;;;;;10.70;99.90;;;;;;5029665;28;20313;-70
2023/04/16 13:21:07;;;;;;;;;;;10.80;99.90;;;;;;5022678;28;19933;-72
2023/04/16 13:23:34;;;;;;;;;;;10.80;99.90;;;;;;5015845;28;20020;-70
2023/04/16 13:25:59;;;;;;;;;;;10.90;99.90;;;;;;5015956;28;19960;-70
2023/04/16 13:28:25;;;;;;;;;;;10.70;99.90;;;;;;4999723;28;20322;-70
2023/04/16 13:30:54;;;;;;;;;;;10.80;99.90;;;;;;5020203;28;20385;-69
2023/04/16 13:33:20;;;;;;;;;;;10.90;99.90;;;;;;5021589;28;19910;-71
2023/04/16 13:35:46;;;;;;;;;;;11.00;99.90;;;;;;5002370;28;19968;-70
2023/04/16 13:38:15;;;;;;;;;;;10.90;99.90;;;;;;5002876;28;19918;-68
2023/04/16 13:40:41;;;;;;;;;;;10.90;99.90;;;;;;5020536;28;20382;-68
2023/04/16 13:43:06;;;;;;;;;;;10.90;99.90;;;;;;5019775;28;19925;-69
2023/04/16 13:45:38;;;;;;;;;;;10.90;99.90;;;;;;5019948;28;19917;-66
2023/04/16 13:48:07;;;;;;;;;;;10.90;99.90;;;;;;5018001;28;19909;-66
2023/04/16 13:50:32;;;;;;;;;;;10.80;99.90;;;;;;5016727;28;20055;-68
2023/04/16 13:52:58;;;;;;;;;;;10.70;99.90;;;;;;4994508;28;20008;-67
2023/04/16 13:55:26;;;;;;;;;;;10.70;99.90;;;;;;4996923;28;19914;-66
2023/04/16 13:57:55;;;;;;;;;;;10.70;99.90;;;;;;5016228;28;19932;-63
2023/04/16 14:00:21;;;;;;;;;;;10.70;99.90;;;;;;5016298;28;19921;-66
2023/04/16 14:02:52;;;;;;;;;;;10.70;99.90;;;;;;5013192;28;19917;-64
2023/04/16 14:05:22;;;;;;;;;;;10.80;99.90;;;;;;5011631;28;19996;-64
2023/04/16 14:07:59;;;;;;;;;;;10.80;99.90;;;;;;5007538;28;20008;-63
2023/04/16 14:10:27;;;;;;;;;;;10.90;99.90;;;;;;5016112;28;19925;-62
2023/04/16 14:12:59;;;;;;;;;;;10.90;99.90;;;;;;5009347;28;19920;-65
2023/04/16 14:15:30;;;;;;;;;;;10.80;99.90;;;;;;5022418;28;19929;-64
2023/04/16 14:18:00;;;;;;;;;;;10.80;99.90;;;;;;5023200;28;19948;-65
2023/04/16 14:20:46;;;;;;;;;;;10.80;99.90;;;;;;5026321;28;19916;-65